createdAt,value
2023-05-25T00:05:55.446Z,49.69
2023-05-25T00:09:21.855Z,49.44
2023-05-25T00:12:41.479Z,49.44
2023-05-25T00:15:38.835Z,49.28
2023-05-25T00:19:16.725Z,50.07
2023-05-25T00:25:54.415Z,49.36
2023-05-25T00:32:52.329Z,49.42
2023-05-25T00:36:27.262Z,49.50
2023-05-25T00:40:08.793Z,49.57
2023-05-25T00:43:33.964Z,49.62
2023-05-25T00:46:32.229Z,49.79
2023-05-25T00:49:37.641Z,49.52
2023-05-25T00:52:59.959Z,49.77
2023-05-25T00:56:13.980Z,49.86
2023-05-25T00:59:38.560Z,49.65
2023-05-25T01:02:34.308Z,49.75
2023-05-25T01:05:46.509Z,49.91
2023-05-25T01:09:27.662Z,50.20
2023-05-25T01:13:03.655Z,50.07
2023-05-25T01:23:47.266Z,50.42
2023-05-25T01:27:07.207Z,50.13
2023-05-25T01:30:45.812Z,49.95
2023-05-25T01:34:59.325Z,49.97
2023-05-25T01:54:07.630Z,50.24
2023-05-25T01:57:40.773Z,50.08
2023-05-25T02:01:05.154Z,50.11
2023-05-25T02:04:26.312Z,50.19
2023-05-25T02:07:37.902Z,50.09
2023-05-25T02:10:41.816Z,50.26
2023-05-25T02:13:43.355Z,50.18
2023-05-25T02:16:44.436Z,49.91
2023-05-25T02:20:03.385Z,50.12
2023-05-25T02:23:05.524Z,50.23
2023-05-25T02:26:00.406Z,50.00
2023-05-25T02:29:04.953Z,50.32
2023-05-25T02:32:02.740Z,50.27
2023-05-25T02:35:12.540Z,50.54
2023-05-25T02:38:14.356Z,50.17
2023-05-25T02:41:48.244Z,50.52
2023-05-25T02:51:14.006Z,50.50
2023-05-25T02:53:19.678Z,50.99
2023-05-25T03:00:33.903Z,50.72
2023-05-25T03:03:48.574Z,50.94
2023-05-25T03:07:36.351Z,51.23
2023-05-25T03:14:50.051Z,51.29
2023-05-25T03:17:50.929Z,51.00
2023-05-25T03:21:00.368Z,50.97
2023-05-25T03:24:07.700Z,52.11
2023-05-25T03:26:54.354Z,51.05
2023-05-25T03:29:41.926Z,50.82
2023-05-25T03:32:30.109Z,51.09
2023-05-25T03:35:17.784Z,50.96
2023-05-25T03:42:10.062Z,51.03
2023-05-25T03:45:28.645Z,51.12
2023-05-25T03:49:11.864Z,50.86
2023-05-25T03:52:14.933Z,50.75
2023-05-25T03:56:41.032Z,51.03
2023-05-25T03:59:22.037Z,50.96
2023-05-25T04:15:59.767Z,51.31
2023-05-25T04:20:04.209Z,51.13
2023-05-25T04:23:23.454Z,50.98
2023-05-25T04:26:52.276Z,51.03
2023-05-25T04:34:30.341Z,51.48
2023-05-25T04:37:50.121Z,51.02
2023-05-25T04:41:14.544Z,51.43
2023-05-25T04:44:50.480Z,51.15
2023-05-25T04:48:11.601Z,51.20
2023-05-25T04:51:34.212Z,51.21
2023-05-25T04:55:16.976Z,51.42
2023-05-25T05:02:32.677Z,51.89
2023-05-25T05:05:50.758Z,51.75
2023-05-25T05:09:27.940Z,52.10
2023-05-25T05:20:06.879Z,52.03
2023-05-25T05:23:35.721Z,51.99
2023-05-25T05:27:07.329Z,52.13
2023-05-25T05:30:34.708Z,51.67
2023-05-25T05:37:24.991Z,52.20
2023-05-25T05:40:31.510Z,52.02
2023-05-25T05:47:50.888Z,52.25
2023-05-25T05:51:17.894Z,52.05
2023-05-25T05:55:27.553Z,52.35
2023-05-25T06:03:02.484Z,52.41
2023-05-25T06:18:04.392Z,51.95
2023-05-25T06:25:12.311Z,52.35
2023-05-25T06:32:10.678Z,51.94
2023-05-25T06:36:19.022Z,52.10
2023-05-25T06:39:37.525Z,51.81
2023-05-25T06:42:59.965Z,51.80
2023-05-25T06:46:42.772Z,51.92
2023-05-25T06:49:55.994Z,51.87
2023-05-25T06:53:07.410Z,51.87
2023-05-25T06:56:36.641Z,51.96
2023-05-25T07:03:38.855Z,52.07
2023-05-25T07:43:58.269Z,52.47
2023-05-25T12:50:04.258Z,48.29
2023-05-25T12:58:50.128Z,48.67
2023-05-25T13:11:38.617Z,49.63
2023-05-25T13:24:02.816Z,49.91
2023-05-25T15:08:22.662Z,51.32
2023-05-25T15:11:58.298Z,51.33
2023-05-25T15:15:07.542Z,51.45
2023-05-25T18:14:28.404Z,53.58
2023-05-25T19:43:28.567Z,54.81
2023-05-25T19:46:25.235Z,54.73
2023-05-25T19:49:15.480Z,54.64
2023-05-25T19:52:13.842Z,54.70
2023-05-25T19:55:11.222Z,54.84
2023-05-25T19:58:12.359Z,54.84
2023-05-25T20:01:18.969Z,54.92
2023-05-25T20:04:30.432Z,54.96
2023-05-25T20:07:43.223Z,55.16
2023-05-25T20:11:57.228Z,55.29
2023-05-25T20:44:52.002Z,56.03
2023-05-25T20:48:47.254Z,55.87
2023-05-25T20:52:07.898Z,55.56
2023-05-25T20:55:33.439Z,55.18
2023-05-25T20:58:59.674Z,54.90
2023-05-25T21:02:08.178Z,54.64
2023-05-25T21:05:00.424Z,54.93
2023-05-25T21:17:14.753Z,55.62
2023-05-25T21:24:30.787Z,55.77
2023-05-25T21:27:34.064Z,55.83
2023-05-25T21:31:10.081Z,55.99
2023-05-25T21:41:30.794Z,55.88
2023-05-25T21:44:18.816Z,56.01
2023-05-25T21:47:07.479Z,55.99
2023-05-25T21:49:56.857Z,55.88
2023-05-25T21:52:47.038Z,56.04
2023-05-25T21:55:35.489Z,55.85
2023-05-25T21:58:25.256Z,55.89
2023-05-25T22:01:12.345Z,55.96
2023-05-25T22:04:01.440Z,55.99
2023-05-25T22:07:01.520Z,56.08
2023-05-25T22:09:51.909Z,56.15
2023-05-25T22:12:43.516Z,56.13
2023-05-25T22:15:31.171Z,56.22
2023-05-25T22:18:26.811Z,56.15
2023-05-25T22:21:46.589Z,56.25
2023-05-25T22:24:36.940Z,56.34
2023-05-25T22:27:34.488Z,56.09
2023-05-25T22:33:56.715Z,56.30
2023-05-25T22:36:49.009Z,56.26
2023-05-25T22:39:58.613Z,56.21
2023-05-25T22:42:56.938Z,56.50
2023-05-25T22:46:29.332Z,56.54
2023-05-25T22:49:43.836Z,56.47
2023-05-25T22:56:12.463Z,56.50
2023-05-25T22:59:24.397Z,56.76
2023-05-25T23:02:31.748Z,56.74
2023-05-25T23:13:23.726Z,56.78
2023-05-25T23:16:21.819Z,56.64
2023-05-25T23:19:30.632Z,56.37
2023-05-25T23:22:51.948Z,56.58
2023-05-25T23:29:04.591Z,56.52
2023-05-25T23:31:54.659Z,56.48
2023-05-25T23:34:51.621Z,56.33
2023-05-25T23:41:11.899Z,56.39
2023-05-25T23:44:25.409Z,56.54
2023-05-25T23:47:33.132Z,56.57
2023-05-25T23:50:55.329Z,56.56
2023-05-25T23:54:10.341Z,56.31
2023-05-25T23:58:03.574Z,56.48
